Time;durP1;ratioP1;P1;durP2;ratioP2;P2;SDS_P1;SDS_P2;PMS_P1;PMS_P2;Temp;Humidity;BMP_temperature;BMP_pressure;BME280_temperature;BME280_humidity;BME280_pressure;Samples;Min_cycle;Max_cycle;Signal;HPM_P1;HPM_P2
2021/06/21 00:00:27;;;;;;;7.07;3.60;;;18.80;85.80;;;;;;5122174;28;20015;-80
2021/06/21 00:02:53;;;;;;;12.18;5.75;;;18.70;84.10;;;;;;5116201;28;20456;-82
2021/06/21 00:05:19;;;;;;;9.10;5.65;;;18.60;85.00;;;;;;5124992;28;20016;-79
2021/06/21 00:07:45;;;;;;;10.38;7.07;;;18.50;86.30;;;;;;5117063;28;20023;-82
2021/06/21 00:10:14;;;;;;;10.13;5.38;;;18.40;87.40;;;;;;5130822;28;20031;-81
2021/06/21 00:12:41;;;;;;;18.13;9.32;;;18.40;86.20;;;;;;5119172;28;20023;-82
2021/06/21 00:15:08;;;;;;;8.77;4.93;;;18.40;86.30;;;;;;5113607;28;20538;-82
2021/06/21 00:17:34;;;;;;;8.73;4.93;;;18.20;85.50;;;;;;5113260;28;20063;-80
2021/06/21 00:20:00;;;;;;;12.93;8.88;;;18.20;86.10;;;;;;5113097;28;20032;-82
2021/06/21 00:22:26;;;;;;;15.82;10.00;;;18.10;86.10;;;;;;5113691;28;20447;-81
2021/06/21 00:24:51;;;;;;;10.57;7.22;;;18.10;87.20;;;;;;5114036;28;20016;-82
2021/06/21 00:27:17;;;;;;;11.35;6.82;;;18.00;87.30;;;;;;5112880;28;20251;-82
2021/06/21 00:29:43;;;;;;;12.80;7.90;;;18.00;86.70;;;;;;5112808;28;20482;-83
2021/06/21 00:32:09;;;;;;;12.13;8.35;;;18.00;86.70;;;;;;5112724;28;20357;-82
2021/06/21 00:34:35;;;;;;;13.63;8.52;;;17.90;87.30;;;;;;5113186;28;20023;-83
2021/06/21 00:37:00;;;;;;;19.15;12.77;;;17.80;88.40;;;;;;5124381;28;20030;-82
2021/06/21 00:39:26;;;;;;;12.13;6.78;;;17.80;88.70;;;;;;5114966;28;20041;-83
2021/06/21 00:41:52;;;;;;;16.27;11.68;;;17.80;88.10;;;;;;5113364;28;20028;-82
2021/06/21 00:44:17;;;;;;;10.32;6.70;;;17.80;88.10;;;;;;5114147;28;20024;-81
2021/06/21 00:46:43;;;;;;;16.17;11.65;;;17.70;87.20;;;;;;5117786;28;20066;-80
2021/06/21 00:49:09;;;;;;;15.07;9.88;;;17.70;88.40;;;;;;5124054;28;20052;-83
2021/06/21 00:51:35;;;;;;;11.55;5.75;;;17.70;89.10;;;;;;5126599;28;20027;-82
2021/06/21 00:54:01;;;;;;;9.10;5.68;;;17.70;87.20;;;;;;5116524;28;20022;-80
2021/06/21 00:56:27;;;;;;;11.18;6.07;;;17.70;86.40;;;;;;5117399;28;20039;-82
2021/06/21 00:59:01;;;;;;;11.75;7.82;;;17.70;87.20;;;;;;5117546;28;20016;-83
2021/06/21 01:01:27;;;;;;;9.02;7.00;;;17.70;87.00;;;;;;5117897;28;20054;-83
2021/06/21 01:03:53;;;;;;;14.73;9.13;;;17.60;87.30;;;;;;5117022;28;20043;-84
2021/06/21 01:06:18;;;;;;;14.27;9.93;;;17.50;88.00;;;;;;5117143;28;20409;-82
2021/06/21 01:08:44;;;;;;;19.15;13.32;;;17.40;88.30;;;;;;5116488;28;20055;-82
2021/06/21 01:11:10;;;;;;;12.80;10.05;;;17.40;88.50;;;;;;5116154;28;20028;-82
2021/06/21 01:13:45;;;;;;;12.02;9.57;;;17.30;88.60;;;;;;5118680;28;20073;-83
2021/06/21 01:16:41;;;;;;;13.38;9.68;;;17.20;88.50;;;;;;5116956;28;20024;-83
2021/06/21 01:20:12;;;;;;;19.30;13.35;;;17.10;89.40;;;;;;5116326;28;20545;-82
2021/06/21 01:23:11;;;;;;;11.20;8.57;;;17.10;89.40;;;;;;5077947;28;20028;-82
2021/06/21 01:25:40;;;;;;;15.18;10.90;;;17.00;89.50;;;;;;5117027;28;20061;-82
2021/06/21 01:28:46;;;;;;;17.20;13.48;;;16.90;89.80;;;;;;5117243;28;20028;-82
2021/06/21 01:31:18;;;;;;;17.85;14.60;;;16.90;89.80;;;;;;5117769;28;20091;-82
2021/06/21 01:33:46;;;;;;;15.55;12.63;;;16.80;90.50;;;;;;5136418;28;20063;-81
2021/06/21 01:36:14;;;;;;;16.58;12.30;;;16.80;90.50;;;;;;5123799;28;20545;-80
2021/06/21 01:38:42;;;;;;;17.63;11.02;;;16.70;90.60;;;;;;5117914;28;20436;-80
2021/06/21 01:41:14;;;;;;;13.40;8.13;;;16.70;90.10;;;;;;5115347;28;20024;-82
2021/06/21 01:43:42;;;;;;;12.63;8.43;;;16.70;90.30;;;;;;5116496;28;20035;-81
2021/06/21 01:46:11;;;;;;;12.65;7.72;;;16.70;90.30;;;;;;5115227;28;20023;-82
2021/06/21 01:48:42;;;;;;;12.82;10.60;;;16.60;90.60;;;;;;5116152;28;20027;-82
2021/06/21 01:51:08;;;;;;;13.40;10.52;;;16.70;90.60;;;;;;5115318;28;20066;-81
2021/06/21 01:53:35;;;;;;;16.42;10.07;;;16.60;90.60;;;;;;5116517;28;20019;-82
2021/06/21 01:56:02;;;;;;;13.45;8.88;;;16.60;90.70;;;;;;5116354;28;20463;-81
2021/06/21 01:58:32;;;;;;;7.70;4.35;;;16.50;90.70;;;;;;5116120;28;20459;-81
2021/06/21 02:01:00;;;;;;;13.57;9.10;;;16.50;90.50;;;;;;5115468;28;20027;-80
2021/06/21 02:03:26;;;;;;;13.02;8.57;;;16.60;90.50;;;;;;5116809;28;20104;-81
2021/06/21 02:05:53;;;;;;;9.75;5.63;;;16.60;90.20;;;;;;5124447;28;20012;-81
2021/06/21 02:08:21;;;;;;;16.58;10.02;;;16.50;90.10;;;;;;5130938;28;20371;-81
2021/06/21 02:10:53;;;;;;;7.88;4.47;;;16.50;90.40;;;;;;5126319;28;20079;-82
2021/06/21 02:13:22;;;;;;;7.75;5.13;;;16.50;90.30;;;;;;5130255;28;20062;-82
2021/06/21 02:15:49;;;;;;;9.13;5.20;;;16.50;90.40;;;;;;5116247;28;20067;-80
2021/06/21 02:18:18;;;;;;;13.07;8.38;;;16.40;90.40;;;;;;5115651;28;20075;-81
2021/06/21 02:20:45;;;;;;;10.98;8.52;;;16.40;90.60;;;;;;5115507;28;20421;-83
2021/06/21 02:23:12;;;;;;;9.32;6.57;;;16.30;91.00;;;;;;5118700;28;20180;-82
2021/06/21 02:25:38;;;;;;;11.23;7.63;;;16.40;90.80;;;;;;5123193;28;20034;-82
2021/06/21 02:28:04;;;;;;;8.43;4.35;;;16.30;90.70;;;;;;5115980;28;20047;-81
2021/06/21 02:30:34;;;;;;;8.55;5.78;;;16.40;90.50;;;;;;5116780;28;20057;-82
2021/06/21 02:33:00;;;;;;;9.63;5.78;;;16.40;90.50;;;;;;5132036;28;20024;-83
2021/06/21 02:35:27;;;;;;;12.15;6.57;;;16.30;90.70;;;;;;5136056;28;20030;-83
2021/06/21 02:37:53;;;;;;;6.30;3.88;;;16.30;90.60;;;;;;5138709;28;20031;-82
2021/06/21 02:40:19;;;;;;;5.03;2.92;;;16.40;90.60;;;;;;5123480;28;20110;-83
2021/06/21 02:42:45;;;;;;;9.63;6.65;;;16.40;90.70;;;;;;5115438;28;20067;-81
2021/06/21 02:45:12;;;;;;;8.65;5.80;;;16.40;90.50;;;;;;5114434;28;20035;-81
2021/06/21 02:47:39;;;;;;;9.70;5.75;;;16.20;90.60;;;;;;5115133;28;20016;-80
2021/06/21 02:50:06;;;;;;;9.60;5.78;;;16.20;90.80;;;;;;5114481;28;20028;-84
2021/06/21 02:52:41;;;;;;;6.00;3.28;;;16.20;90.70;;;;;;5114716;28;20062;-83
2021/06/21 02:55:20;;;;;;;6.97;4.05;;;16.10;91.00;;;;;;5114502;28;20035;-82
2021/06/21 02:57:58;;;;;;;8.30;4.57;;;16.00;91.00;;;;;;5114676;28;20015;-83
2021/06/21 03:00:24;;;;;;;6.82;3.38;;;16.00;91.00;;;;;;5114471;28;20020;-82
2021/06/21 03:02:52;;;;;;;11.35;5.70;;;16.00;91.20;;;;;;5120700;28;20024;-82
2021/06/21 03:05:19;;;;;;;8.93;4.65;;;16.00;91.00;;;;;;5121570;28;20115;-82
2021/06/21 03:07:47;;;;;;;6.78;4.55;;;15.80;91.10;;;;;;5114548;28;20490;-80
2021/06/21 03:10:13;;;;;;;6.90;4.55;;;15.80;91.30;;;;;;5114478;28;20023;-82
2021/06/21 03:12:41;;;;;;;7.68;4.97;;;15.80;91.30;;;;;;5113449;28;20061;-82
2021/06/21 03:15:07;;;;;;;8.82;5.55;;;15.70;91.30;;;;;;5114620;28;20153;-82
2021/06/21 03:17:38;;;;;;;8.93;5.70;;;15.60;91.50;;;;;;5114115;28;20043;-83
2021/06/21 03:20:05;;;;;;;7.90;4.07;;;15.60;91.50;;;;;;5114601;28;20031;-83
2021/06/21 03:22:30;;;;;;;7.57;4.70;;;15.60;91.70;;;;;;5114334;28;20039;-81
2021/06/21 03:24:56;;;;;;;7.35;5.38;;;15.60;91.60;;;;;;5114540;28;20035;-82
2021/06/21 03:27:40;;;;;;;7.00;4.00;;;15.70;91.20;;;;;;5113948;28;20016;-81
2021/06/21 03:30:13;;;;;;;6.43;4.20;;;15.50;91.30;;;;;;5114180;28;20519;-81
2021/06/21 03:32:41;;;;;;;9.02;5.03;;;15.50;91.60;;;;;;5114465;28;20027;-82
2021/06/21 03:35:09;;;;;;;6.03;3.78;;;15.50;91.70;;;;;;5125145;28;20043;-81
2021/06/21 03:37:35;;;;;;;9.68;4.85;;;15.40;91.90;;;;;;5132528;28;20023;-81
2021/06/21 03:40:01;;;;;;;5.13;3.85;;;15.40;91.90;;;;;;5119386;28;20034;-81
2021/06/21 03:42:27;;;;;;;6.60;4.60;;;15.40;91.90;;;;;;5114443;28;20027;-81
2021/06/21 03:44:53;;;;;;;8.45;4.32;;;15.40;92.00;;;;;;5114734;28;20024;-81
2021/06/21 03:47:19;;;;;;;7.07;3.92;;;15.50;91.80;;;;;;5112916;28;20012;-80
2021/06/21 03:49:47;;;;;;;8.63;5.18;;;15.40;91.50;;;;;;5115837;28;20024;-80
2021/06/21 03:52:13;;;;;;;7.63;4.20;;;15.40;91.70;;;;;;5114420;28;20475;-80
2021/06/21 03:54:39;;;;;;;6.38;3.72;;;15.40;91.90;;;;;;5114204;28;20015;-81
2021/06/21 03:57:06;;;;;;;6.70;4.13;;;15.30;91.90;;;;;;5113784;28;20512;-81
2021/06/21 03:59:32;;;;;;;5.60;3.33;;;15.40;91.90;;;;;;5115719;28;20024;-80
2021/06/21 04:01:58;;;;;;;3.85;2.47;;;15.30;92.10;;;;;;5113907;28;20036;-82
2021/06/21 04:04:27;;;;;;;9.35;4.30;;;15.40;92.10;;;;;;5116878;28;20033;-81
2021/06/21 04:06:53;;;;;;;6.15;3.10;;;15.40;91.90;;;;;;5124118;28;20030;-82
2021/06/21 04:09:19;;;;;;;6.47;3.33;;;15.40;92.10;;;;;;5125297;28;20019;-79
2021/06/21 04:11:46;;;;;;;4.30;2.75;;;15.40;92.10;;;;;;5121281;28;20046;-79
2021/06/21 04:14:13;;;;;;;6.75;4.40;;;15.40;92.00;;;;;;5117280;28;20023;-80
2021/06/21 04:16:39;;;;;;;5.53;2.67;;;15.40;91.80;;;;;;5114128;28;20023;-78
2021/06/21 04:19:04;;;;;;;6.53;4.00;;;15.30;92.10;;;;;;5114332;28;20059;-80
2021/06/21 04:21:30;;;;;;;8.00;3.90;;;15.20;91.90;;;;;;5114413;28;20031;-80
2021/06/21 04:23:56;;;;;;;5.85;3.40;;;15.30;92.30;;;;;;5122598;28;20368;-80
2021/06/21 04:26:23;;;;;;;4.47;3.17;;;15.40;92.30;;;;;;5133953;28;20027;-81
2021/06/21 04:28:49;;;;;;;4.78;2.95;;;15.30;92.40;;;;;;5129478;28;20024;-81
2021/06/21 04:31:15;;;;;;;5.38;3.05;;;15.40;92.10;;;;;;5120143;28;20024;-79
2021/06/21 04:33:41;;;;;;;5.43;3.47;;;15.40;92.10;;;;;;5120521;28;20028;-79
2021/06/21 04:36:07;;;;;;;4.03;2.20;;;15.30;92.00;;;;;;5120717;28;20022;-81
2021/06/21 04:38:33;;;;;;;6.45;3.85;;;15.20;92.20;;;;;;5120255;28;20020;-80
2021/06/21 04:40:58;;;;;;;7.68;4.20;;;15.20;92.10;;;;;;5122044;27;20118;-80
2021/06/21 04:43:24;;;;;;;6.18;3.85;;;15.20;92.20;;;;;;5120333;28;20046;-81
2021/06/21 04:45:50;;;;;;;6.00;4.15;;;15.20;92.20;;;;;;5121004;28;20409;-81
2021/06/21 04:48:15;;;;;;;4.53;2.88;;;15.20;92.10;;;;;;5121774;27;20099;-82
2021/06/21 04:50:42;;;;;;;4.30;2.72;;;15.10;92.60;;;;;;5120766;28;20024;-81
2021/06/21 04:53:13;;;;;;;6.15;3.53;;;15.10;92.20;;;;;;5120040;28;20112;-81
2021/06/21 04:55:40;;;;;;;4.68;2.92;;;15.10;92.10;;;;;;5121394;28;20019;-81
2021/06/21 04:58:06;;;;;;;4.18;2.80;;;15.10;92.30;;;;;;5120151;28;20372;-82
2021/06/21 05:00:31;;;;;;;6.00;3.10;;;15.10;92.30;;;;;;5121573;28;20023;-82
2021/06/21 05:02:57;;;;;;;6.03;2.88;;;15.20;92.30;;;;;;5119687;27;20576;-82
2021/06/21 05:05:23;;;;;;;5.25;3.42;;;15.20;92.10;;;;;;5122492;28;20375;-82
2021/06/21 05:07:50;;;;;;;6.60;2.72;;;15.10;92.10;;;;;;5120942;28;20045;-81
2021/06/21 05:10:18;;;;;;;3.97;1.83;;;15.10;92.20;;;;;;5120337;28;20468;-81
2021/06/21 05:12:44;;;;;;;4.20;1.95;;;15.20;92.20;;;;;;5120926;28;20045;-81
2021/06/21 05:15:11;;;;;;;6.07;3.08;;;15.20;92.10;;;;;;5121387;28;20047;-82
2021/06/21 05:17:36;;;;;;;5.00;2.70;;;15.10;92.00;;;;;;5120465;28;20055;-82
2021/06/21 05:20:04;;;;;;;3.00;1.70;;;15.10;92.10;;;;;;5121177;28;20019;-83
2021/06/21 05:22:30;;;;;;;4.03;2.20;;;15.10;92.00;;;;;;5120553;28;20012;-82
2021/06/21 05:24:57;;;;;;;5.03;2.80;;;15.10;92.00;;;;;;5121930;27;20106;-81
2021/06/21 05:27:23;;;;;;;4.45;2.40;;;15.00;92.00;;;;;;5119762;28;20016;-82
2021/06/21 05:29:48;;;;;;;3.78;2.22;;;15.00;92.00;;;;;;5120640;28;20019;-80
2021/06/21 05:32:14;;;;;;;5.03;2.70;;;15.00;92.10;;;;;;5120614;28;20256;-81
2021/06/21 05:34:40;;;;;;;4.80;2.40;;;15.00;92.10;;;;;;5119497;28;20031;-81
2021/06/21 05:37:06;;;;;;;3.53;1.70;;;15.00;92.00;;;;;;5125659;28;20036;-79
2021/06/21 05:39:31;;;;;;;3.80;2.22;;;15.00;92.10;;;;;;5134792;28;20023;-80
2021/06/21 05:41:57;;;;;;;5.07;2.08;;;15.00;92.10;;;;;;5117612;28;20038;-80
2021/06/21 05:44:23;;;;;;;3.05;1.77;;;15.10;92.20;;;;;;5117476;28;20027;-82
2021/06/21 05:46:48;;;;;;;4.32;2.17;;;15.10;92.30;;;;;;5116226;28;20020;-81
2021/06/21 05:49:14;;;;;;;3.75;1.70;;;15.10;92.10;;;;;;5117345;28;20019;-81
2021/06/21 05:51:40;;;;;;;4.82;1.80;;;15.20;91.90;;;;;;5116601;28;20027;-81
2021/06/21 05:54:06;;;;;;;3.47;2.00;;;15.20;91.90;;;;;;5116942;28;20031;-82
2021/06/21 05:56:31;;;;;;;5.13;1.73;;;15.10;91.90;;;;;;5116851;28;20028;-83
2021/06/21 05:58:58;;;;;;;1.95;1.35;;;15.10;91.90;;;;;;5117929;28;20024;-83
2021/06/21 06:01:24;;;;;;;2.85;1.30;;;15.00;92.00;;;;;;5117037;28;20033;-83
2021/06/21 06:03:51;;;;;;;2.97;1.35;;;15.10;92.10;;;;;;5119134;28;20119;-78
2021/06/21 06:06:16;;;;;;;2.88;1.70;;;15.10;92.10;;;;;;5129657;28;20066;-80
2021/06/21 06:08:42;;;;;;;2.60;1.40;;;15.10;92.20;;;;;;5133144;28;20032;-81
2021/06/21 06:11:07;;;;;;;4.03;1.70;;;15.10;92.00;;;;;;5127639;28;20023;-80
2021/06/21 06:13:35;;;;;;;3.33;1.98;;;15.10;92.00;;;;;;5136687;28;20145;-80
2021/06/21 06:16:00;;;;;;;3.13;1.90;;;15.10;92.00;;;;;;5120270;28;20396;-81
2021/06/21 06:18:26;;;;;;;3.05;1.40;;;15.10;92.40;;;;;;5115935;28;20688;-80
2021/06/21 06:20:52;;;;;;;3.47;1.50;;;15.10;92.20;;;;;;5115424;28;20023;-79
2021/06/21 06:23:17;;;;;;;3.95;1.58;;;15.10;92.10;;;;;;5115034;28;20023;-79
2021/06/21 06:25:43;;;;;;;3.50;1.45;;;15.10;92.20;;;;;;5115027;28;20020;-78
2021/06/21 06:28:09;;;;;;;2.22;1.20;;;15.10;92.00;;;;;;5114852;28;20031;-78
2021/06/21 06:30:35;;;;;;;2.25;1.20;;;15.10;92.00;;;;;;5114828;28;20034;-78
2021/06/21 06:33:01;;;;;;;3.63;1.77;;;15.10;91.90;;;;;;5114664;28;20028;-78
2021/06/21 06:35:27;;;;;;;3.15;1.55;;;15.10;91.90;;;;;;5113101;28;20026;-78
2021/06/21 06:37:52;;;;;;;3.47;1.70;;;15.10;92.00;;;;;;5113617;28;20028;-78
2021/06/21 06:40:19;;;;;;;2.65;1.40;;;15.10;92.20;;;;;;5113483;28;20505;-79
2021/06/21 06:42:45;;;;;;;2.70;1.60;;;15.20;91.90;;;;;;5113299;28;20058;-79
2021/06/21 06:45:13;;;;;;;3.08;1.60;;;15.10;91.90;;;;;;5114608;28;20416;-80
2021/06/21 06:47:39;;;;;;;4.13;1.48;;;15.10;92.20;;;;;;5114557;28;20024;-77
2021/06/21 06:50:06;;;;;;;2.45;1.45;;;15.10;92.20;;;;;;5113894;28;20486;-78
2021/06/21 06:52:33;;;;;;;3.33;1.65;;;15.20;92.10;;;;;;5114235;28;20479;-78
2021/06/21 06:57:38;;;;;;;2.25;1.35;;;15.10;92.10;;;;;;5115653;28;20092;-80
2021/06/21 07:00:07;;;;;;;3.03;1.45;;;15.10;92.20;;;;;;5114271;28;20026;-79
2021/06/21 07:02:32;;;;;;;5.05;2.00;;;15.20;92.00;;;;;;5114090;28;20036;-78
2021/06/21 07:05:00;;;;;;;2.85;1.70;;;15.20;92.00;;;;;;5114151;28;20072;-78
2021/06/21 07:07:26;;;;;;;2.17;1.20;;;15.10;91.90;;;;;;5110951;28;20404;-79
2021/06/21 07:09:52;;;;;;;3.70;1.88;;;15.20;92.00;;;;;;5113743;28;20059;-79
2021/06/21 07:12:17;;;;;;;1.73;1.20;;;15.20;92.00;;;;;;5113095;28;20028;-78
2021/06/21 07:14:43;;;;;;;3.30;1.77;;;15.20;92.10;;;;;;5114199;28;20047;-79
2021/06/21 07:17:09;;;;;;;3.38;1.90;;;15.30;91.90;;;;;;5108753;28;20115;-80
2021/06/21 07:19:34;;;;;;;2.83;1.65;;;15.30;91.90;;;;;;5113461;28;20028;-79
2021/06/21 07:22:01;;;;;;;3.58;2.35;;;15.20;92.30;;;;;;5116553;28;20028;-79
2021/06/21 07:24:27;;;;;;;1.83;1.08;;;15.20;92.20;;;;;;5113051;28;20028;-79
2021/06/21 07:26:53;;;;;;;3.47;1.70;;;15.40;91.80;;;;;;5113380;28;20020;-78
2021/06/21 07:29:19;;;;;;;2.90;1.33;;;15.30;91.90;;;;;;5113885;28;20081;-78
2021/06/21 07:31:45;;;;;;;1.85;1.08;;;15.30;91.80;;;;;;5113719;28;20215;-78
2021/06/21 07:34:11;;;;;;;2.35;1.50;;;15.40;91.80;;;;;;5114510;28;20118;-77
2021/06/21 07:36:37;;;;;;;1.63;1.10;;;15.30;91.80;;;;;;5113937;28;20039;-77
2021/06/21 07:39:04;;;;;;;2.00;1.42;;;15.40;91.80;;;;;;5119411;28;20039;-77
2021/06/21 07:41:30;;;;;;;2.80;1.73;;;15.40;91.70;;;;;;5132027;28;20034;-78
2021/06/21 07:43:56;;;;;;;3.47;1.83;;;15.50;91.60;;;;;;5114759;28;20057;-77
2021/06/21 07:46:22;;;;;;;4.40;1.83;;;15.50;91.40;;;;;;5112849;28;20024;-77
2021/06/21 07:48:48;;;;;;;2.58;1.48;;;15.50;91.70;;;;;;5112933;28;20110;-76
2021/06/21 07:51:14;;;;;;;2.50;1.67;;;15.50;91.70;;;;;;5114635;27;20055;-77
2021/06/21 07:53:41;;;;;;;4.05;2.00;;;15.60;91.80;;;;;;5112593;28;20077;-77
2021/06/21 07:56:08;;;;;;;4.10;1.83;;;15.60;91.80;;;;;;5114596;28;20094;-78
2021/06/21 07:58:39;;;;;;;1.92;1.20;;;15.60;91.80;;;;;;5110725;28;20028;-78
2021/06/21 08:01:11;;;;;;;3.17;2.05;;;15.60;91.50;;;;;;5118576;28;20081;-78
2021/06/21 08:03:37;;;;;;;3.97;1.83;;;15.60;91.60;;;;;;5128701;28;20026;-78
2021/06/21 08:06:06;;;;;;;2.15;1.20;;;15.60;91.60;;;;;;5128247;28;20024;-77
2021/06/21 08:08:31;;;;;;;2.28;1.50;;;15.50;91.60;;;;;;5124711;28;20095;-78
2021/06/21 08:10:57;;;;;;;2.40;1.45;;;15.60;91.40;;;;;;5121220;28;20148;-77
2021/06/21 08:13:23;;;;;;;4.25;1.60;;;15.50;91.60;;;;;;5126597;28;20472;-78
2021/06/21 08:15:51;;;;;;;3.92;2.00;;;15.60;91.40;;;;;;5113041;28;20464;-79
2021/06/21 08:18:17;;;;;;;3.35;2.05;;;15.60;91.70;;;;;;5113469;28;20055;-80
2021/06/21 08:20:43;;;;;;;3.17;1.40;;;15.60;91.90;;;;;;5113684;28;20134;-79
2021/06/21 08:23:10;;;;;;;2.38;1.50;;;15.60;91.90;;;;;;5113115;28;20462;-81
2021/06/21 08:25:36;;;;;;;3.10;1.33;;;15.60;91.90;;;;;;5113073;28;20471;-79
2021/06/21 08:28:02;;;;;;;3.45;1.83;;;15.60;91.60;;;;;;5113728;28;20023;-77
2021/06/21 08:30:27;;;;;;;2.40;1.40;;;15.60;91.70;;;;;;5113947;28;20020;-78
2021/06/21 08:32:53;;;;;;;7.75;3.53;;;15.60;91.30;;;;;;5112052;28;20135;-78
2021/06/21 08:35:19;;;;;;;3.00;1.90;;;15.60;91.40;;;;;;5112125;28;20320;-75
2021/06/21 08:37:44;;;;;;;3.35;1.42;;;15.50;91.40;;;;;;5112994;28;20468;-76
2021/06/21 08:40:10;;;;;;;3.28;1.23;;;15.60;91.40;;;;;;5112931;28;20027;-77
2021/06/21 08:42:37;;;;;;;2.72;1.65;;;15.60;91.40;;;;;;5112829;28;20482;-77
2021/06/21 08:45:04;;;;;;;2.83;1.85;;;15.60;91.30;;;;;;5112831;28;20024;-77
2021/06/21 08:47:30;;;;;;;4.60;2.22;;;15.70;91.20;;;;;;5112293;28;20023;-77
2021/06/21 08:49:57;;;;;;;6.20;2.50;;;15.60;91.20;;;;;;5114204;28;20023;-77
2021/06/21 08:52:26;;;;;;;4.97;2.35;;;15.60;91.50;;;;;;5112345;28;20028;-75
2021/06/21 08:55:03;;;;;;;3.05;2.08;;;15.60;91.80;;;;;;5113102;28;20047;-77
2021/06/21 08:57:30;;;;;;;4.25;2.47;;;15.60;91.90;;;;;;5114107;28;20019;-77
2021/06/21 08:59:56;;;;;;;3.92;2.55;;;15.60;91.90;;;;;;5113085;28;20371;-76
2021/06/21 09:02:22;;;;;;;3.35;1.90;;;15.60;91.70;;;;;;5112561;28;20039;-75
2021/06/21 09:04:48;;;;;;;4.15;2.10;;;15.60;91.70;;;;;;5112439;28;20051;-76
2021/06/21 09:07:21;;;;;;;3.33;2.05;;;15.70;91.90;;;;;;5112060;28;20070;-76
2021/06/21 09:09:48;;;;;;;3.67;2.22;;;15.60;91.80;;;;;;5112706;28;20046;-76
2021/06/21 09:12:21;;;;;;;3.28;2.03;;;15.70;91.80;;;;;;5116253;28;20110;-77
2021/06/21 09:14:47;;;;;;;3.50;1.92;;;15.70;91.90;;;;;;5116114;28;20046;-76
2021/06/21 09:17:13;;;;;;;2.05;1.23;;;15.70;91.90;;;;;;5116580;28;20103;-76
2021/06/21 09:19:46;;;;;;;1.48;1.10;;;15.70;91.80;;;;;;5116129;28;20020;-77
2021/06/21 09:22:26;;;;;;;2.35;1.30;;;15.70;91.50;;;;;;5115780;28;20036;-77
2021/06/21 09:24:52;;;;;;;3.50;1.35;;;15.70;91.10;;;;;;5115865;28;20040;-77
2021/06/21 09:27:19;;;;;;;3.30;1.17;;;15.60;91.20;;;;;;5115802;28;20020;-77
2021/06/21 09:29:45;;;;;;;3.25;1.50;;;15.70;91.10;;;;;;5116294;28;20475;-77
2021/06/21 09:32:10;;;;;;;2.95;1.35;;;15.60;91.20;;;;;;5116258;28;20051;-76
2021/06/21 09:34:39;;;;;;;2.50;1.30;;;15.70;91.10;;;;;;5116169;28;20456;-77
2021/06/21 09:37:11;;;;;;;2.97;1.45;;;15.70;91.20;;;;;;5117192;28;20034;-77
2021/06/21 09:39:42;;;;;;;3.05;1.33;;;15.80;91.30;;;;;;5117810;28;20027;-78
2021/06/21 09:42:23;;;;;;;2.05;1.20;;;15.80;91.00;;;;;;5132673;28;20058;-77
2021/06/21 09:45:00;;;;;;;3.75;1.58;;;15.80;90.70;;;;;;5136976;28;20122;-76
2021/06/21 09:47:30;;;;;;;1.95;1.00;;;15.90;90.90;;;;;;5117174;28;20024;-76
2021/06/21 09:50:19;;;;;;;2.28;1.30;;;15.80;91.10;;;;;;5116330;28;20460;-77
2021/06/21 09:52:46;;;;;;;4.60;1.50;;;15.90;91.10;;;;;;5134760;28;20008;-76
2021/06/21 09:55:37;;;;;;;3.88;1.38;;;15.90;91.00;;;;;;5117433;28;20024;-78
2021/06/21 09:58:02;;;;;;;2.63;1.70;;;16.00;91.20;;;;;;5116194;28;20284;-77
2021/06/21 10:00:28;;;;;;;3.28;1.55;;;16.10;91.50;;;;;;5115976;28;20114;-78
2021/06/21 10:03:15;;;;;;;3.05;1.75;;;16.20;91.40;;;;;;5116150;28;20387;-78
2021/06/21 10:06:05;;;;;;;2.17;1.40;;;16.20;91.40;;;;;;5117735;28;20077;-78
2021/06/21 10:09:06;;;;;;;1.65;1.05;;;16.30;91.10;;;;;;5121627;28;20479;-78
2021/06/21 10:11:33;;;;;;;2.60;1.42;;;16.30;90.40;;;;;;5061801;28;20079;-77
2021/06/21 10:14:11;;;;;;;2.47;1.55;;;16.30;91.20;;;;;;5113292;28;20035;-79
2021/06/21 10:16:38;;;;;;;2.72;1.42;;;16.30;91.30;;;;;;5114688;28;20483;-80
2021/06/21 10:19:06;;;;;;;2.60;1.33;;;16.40;91.40;;;;;;5115578;28;20028;-78
2021/06/21 10:21:33;;;;;;;2.15;1.00;;;16.40;91.20;;;;;;5112732;28;20130;-79
2021/06/21 10:23:59;;;;;;;1.98;1.27;;;16.40;91.10;;;;;;5115350;28;20077;-79
2021/06/21 10:26:25;;;;;;;1.52;0.95;;;16.40;91.40;;;;;;5114897;28;20023;-79
2021/06/21 10:28:52;;;;;;;1.88;1.10;;;16.40;90.90;;;;;;5115044;28;20022;-78
2021/06/21 10:31:21;;;;;;;3.22;1.10;;;16.50;91.10;;;;;;5113936;28;20024;-78
2021/06/21 10:33:46;;;;;;;1.50;0.93;;;16.50;90.80;;;;;;5109430;28;20032;-78
2021/06/21 10:36:12;;;;;;;1.95;0.77;;;16.50;90.90;;;;;;5114959;28;20031;-78
2021/06/21 10:38:38;;;;;;;1.33;1.00;;;16.60;90.70;;;;;;5111366;28;20073;-79
2021/06/21 10:41:07;;;;;;;3.30;0.82;;;16.60;90.50;;;;;;5114703;28;20026;-79
2021/06/21 10:43:45;;;;;;;1.23;0.80;;;16.70;90.00;;;;;;5114446;28;20296;-79
2021/06/21 10:46:22;;;;;;;2.72;1.10;;;16.70;90.00;;;;;;5115836;28;20089;-79
2021/06/21 10:48:57;;;;;;;1.88;1.05;;;16.70;89.20;;;;;;5114114;28;20023;-79
2021/06/21 10:51:33;;;;;;;1.38;0.90;;;16.70;90.00;;;;;;5114367;28;20027;-78
2021/06/21 10:53:58;;;;;;;2.08;0.90;;;16.80;89.10;;;;;;5114530;28;20020;-78
2021/06/21 10:56:58;;;;;;;1.90;1.13;;;16.70;89.80;;;;;;5114576;28;20375;-78
2021/06/21 10:59:25;;;;;;;2.13;0.93;;;16.70;90.00;;;;;;5059860;28;20118;-78
2021/06/21 11:01:55;;;;;;;2.95;0.85;;;16.70;89.40;;;;;;5115024;28;20106;-78
2021/06/21 11:04:34;;;;;;;1.75;0.80;;;16.80;89.10;;;;;;5114313;28;20052;-78
2021/06/21 11:07:29;;;;;;;2.33;1.00;;;16.80;89.50;;;;;;5114737;28;20115;-78
2021/06/21 11:09:58;;;;;;;1.77;0.95;;;16.70;89.60;;;;;;5098219;28;20120;-78
2021/06/21 11:12:29;;;;;;;1.25;1.00;;;16.60;90.00;;;;;;5114936;28;20053;-77
2021/06/21 11:15:07;;;;;;;2.65;1.27;;;16.70;90.10;;;;;;5116827;28;20058;-78
2021/06/21 11:17:53;;;;;;;1.88;1.02;;;16.70;88.80;;;;;;5114878;28;20518;-78
2021/06/21 11:20:30;;;;;;;2.35;0.93;;;16.70;89.60;;;;;;5115030;28;20020;-78
2021/06/21 11:23:02;;;;;;;2.05;0.88;;;16.80;89.30;;;;;;5116631;28;20023;-78
2021/06/21 11:25:29;;;;;;;1.13;0.82;;;17.00;89.50;;;;;;5114639;28;20103;-78
2021/06/21 11:27:55;;;;;;;1.23;0.75;;;17.20;88.50;;;;;;5114260;28;20467;-78
2021/06/21 11:30:28;;;;;;;3.58;1.40;;;17.20;86.90;;;;;;5113855;28;20066;-77
2021/06/21 11:33:00;;;;;;;3.47;1.00;;;17.20;87.60;;;;;;5113007;28;20085;-77
2021/06/21 11:35:50;;;;;;;3.30;1.10;;;17.20;87.10;;;;;;5113559;28;20027;-77
2021/06/21 11:38:24;;;;;;;2.53;1.60;;;17.30;87.90;;;;;;5113430;28;20031;-77
2021/06/21 11:41:26;;;;;;;2.22;1.33;;;17.40;88.00;;;;;;5115102;28;20027;-77
2021/06/21 11:44:02;;;;;;;3.13;0.93;;;17.60;88.10;;;;;;5131177;28;20024;-77
2021/06/21 11:46:41;;;;;;;2.72;1.20;;;17.70;86.20;;;;;;5126778;28;20027;-77
2021/06/21 11:49:10;;;;;;;3.07;1.10;;;17.70;85.80;;;;;;5132527;28;20379;-78
2021/06/21 11:51:37;;;;;;;3.42;1.48;;;17.60;85.60;;;;;;5113332;28;20021;-77
2021/06/21 11:54:03;;;;;;;2.80;1.65;;;17.60;85.50;;;;;;5114541;28;20023;-77
2021/06/21 11:56:30;;;;;;;3.40;1.58;;;17.60;86.20;;;;;;5113409;28;20028;-77
2021/06/21 11:58:59;;;;;;;5.40;1.77;;;17.60;86.40;;;;;;5114803;28;20051;-78
2021/06/21 12:01:27;;;;;;;1.88;0.90;;;17.60;86.70;;;;;;5114792;28;20118;-78
2021/06/21 12:04:01;;;;;;;4.60;1.30;;;17.70;85.60;;;;;;5113812;28;20027;-78
2021/06/21 12:06:28;;;;;;;1.50;1.02;;;17.70;85.70;;;;;;5116381;28;20041;-77
2021/06/21 12:08:54;;;;;;;1.70;1.00;;;17.70;85.00;;;;;;5128539;28;20016;-77
2021/06/21 12:11:25;;;;;;;1.73;0.73;;;17.60;85.40;;;;;;5120803;28;20034;-78
2021/06/21 12:14:00;;;;;;;1.65;0.95;;;17.60;86.10;;;;;;5120064;28;20119;-78
2021/06/21 12:16:27;;;;;;;3.13;1.27;;;17.60;86.20;;;;;;5112659;28;20360;-78
2021/06/21 12:19:00;;;;;;;3.15;1.10;;;17.70;85.70;;;;;;5113420;28;20187;-77
2021/06/21 12:21:34;;;;;;;2.35;1.45;;;17.80;84.60;;;;;;5113348;28;20032;-77
2021/06/21 12:24:14;;;;;;;3.92;1.30;;;17.90;86.10;;;;;;5114430;28;20349;-78
2021/06/21 12:26:41;;;;;;;1.52;1.02;;;18.00;85.20;;;;;;5112956;28;20027;-77
2021/06/21 12:29:23;;;;;;;2.70;1.40;;;18.20;84.50;;;;;;5113494;28;20077;-78
2021/06/21 12:32:16;;;;;;;3.17;1.30;;;18.20;83.10;;;;;;5110307;28;20051;-78
2021/06/21 12:34:54;;;;;;;1.63;0.70;;;18.20;83.00;;;;;;5110421;28;20042;-78
2021/06/21 12:37:24;;;;;;;3.05;0.82;;;18.30;82.80;;;;;;5113026;28;20020;-78
2021/06/21 12:39:54;;;;;;;;;;;18.50;82.80;;;;;;5114164;28;20015;-77
2021/06/21 12:42:21;;;;;;;;;;;18.70;82.00;;;;;;5112555;28;19911;-78
2021/06/21 12:44:47;;;;;;;2.33;1.30;;;18.70;81.40;;;;;;5114049;28;19911;-78
2021/06/21 12:47:27;;;;;;;2.75;1.27;;;18.60;80.80;;;;;;5117870;28;20503;-79
2021/06/21 12:50:01;;;;;;;3.65;1.40;;;18.30;81.40;;;;;;5116505;28;20027;-79
2021/06/21 12:52:26;;;;;;;2.30;1.20;;;18.20;82.20;;;;;;5124509;28;20024;-78
2021/06/21 12:55:05;;;;;;;3.50;1.40;;;18.00;82.80;;;;;;5116326;28;20027;-78
2021/06/21 12:57:47;;;;;;;1.33;0.80;;;17.90;83.30;;;;;;5116708;28;20039;-78